createdAt,value
2023-02-23T00:00:28.488Z,8.67
2023-02-23T00:05:35.375Z,9.37
2023-02-23T00:10:38.372Z,5.63
2023-02-23T00:15:40.982Z,7.20
2023-02-23T00:20:48.056Z,7.87
2023-02-23T00:25:50.608Z,7.30
2023-02-23T00:30:53.074Z,6.80
2023-02-23T00:35:55.652Z,7.07
2023-02-23T00:40:58.273Z,5.90
2023-02-23T00:46:05.546Z,5.07
2023-02-23T00:51:08.011Z,6.10
2023-02-23T00:56:14.492Z,7.70
2023-02-23T01:01:18.401Z,7.23
2023-02-23T01:06:21.803Z,6.73
2023-02-23T01:11:33.657Z,9.07
2023-02-23T01:16:37.074Z,7.87
2023-02-23T01:21:42.543Z,8.30
2023-02-23T01:26:45.682Z,4.83
2023-02-23T01:31:51.320Z,9.63
2023-02-23T01:36:54.229Z,9.40
2023-02-23T01:41:56.701Z,9.90
2023-02-23T01:46:59.272Z,5.80
2023-02-23T01:52:07.464Z,7.90
2023-02-23T01:57:14.657Z,9.43
2023-02-23T02:02:23.688Z,6.23
2023-02-23T02:07:29.944Z,6.53
2023-02-23T02:12:33.095Z,7.63
2023-02-23T02:17:54.399Z,6.90
2023-02-23T02:23:17.944Z,7.60
2023-02-23T02:28:42.366Z,6.70
2023-02-23T02:34:00.318Z,7.97
2023-02-23T02:39:22.892Z,8.50
2023-02-23T02:44:44.160Z,8.27
2023-02-23T02:50:12.745Z,5.97
2023-02-23T02:55:23.899Z,11.63
2023-02-23T03:00:55.295Z,7.83
2023-02-23T03:06:17.151Z,8.47
2023-02-23T03:11:38.237Z,7.90
2023-02-23T03:17:38.513Z,10.40
2023-02-23T03:23:12.358Z,10.13
2023-02-23T03:28:39.935Z,9.70
2023-02-23T03:34:14.020Z,8.50
2023-02-23T03:39:55.416Z,7.37
2023-02-23T03:45:20.965Z,8.60
2023-02-23T03:50:49.624Z,10.10
2023-02-23T03:56:15.201Z,7.67
2023-02-23T04:01:38.488Z,8.07
2023-02-23T04:07:03.284Z,7.10
2023-02-23T04:12:52.142Z,8.83
2023-02-23T04:17:54.903Z,6.80
2023-02-23T04:22:57.441Z,10.37
2023-02-23T04:28:00.075Z,8.80
2023-02-23T04:33:02.709Z,7.00
2023-02-23T04:38:05.632Z,7.80
2023-02-23T04:43:09.533Z,7.80
2023-02-23T04:48:12.243Z,5.80
2023-02-23T04:53:14.857Z,8.10
2023-02-23T04:58:17.400Z,7.10
2023-02-23T05:03:19.831Z,10.20
2023-02-23T05:08:22.234Z,9.87
2023-02-23T05:13:25.016Z,7.37
2023-02-23T05:18:30.674Z,5.70
2023-02-23T05:23:35.106Z,7.70
2023-02-23T05:28:39.834Z,9.77
2023-02-23T05:33:42.763Z,7.40
2023-02-23T05:38:46.819Z,9.10
2023-02-23T05:43:52.426Z,6.17
2023-02-23T05:49:00.881Z,8.50
2023-02-23T05:54:03.525Z,8.63
2023-02-23T05:59:06.118Z,6.47
2023-02-23T06:04:08.995Z,7.30
2023-02-23T06:09:11.715Z,8.27
2023-02-23T06:14:16.503Z,6.13
2023-02-23T06:19:19.074Z,10.50
2023-02-23T06:24:21.663Z,12.70
2023-02-23T06:29:24.398Z,11.87
2023-02-23T06:34:27.053Z,10.50
2023-02-23T06:39:29.712Z,12.90
2023-02-23T06:44:35.386Z,10.67
2023-02-23T06:49:38.141Z,10.00
2023-02-23T06:54:41.945Z,13.00
2023-02-23T06:59:44.784Z,10.67
2023-02-23T07:04:47.515Z,12.97
2023-02-23T07:09:50.063Z,12.30
2023-02-23T07:14:52.845Z,13.53
2023-02-23T07:19:55.637Z,11.60
2023-02-23T07:24:58.148Z,10.90
2023-02-23T07:30:00.799Z,11.53
2023-02-23T07:35:04.723Z,9.03
2023-02-23T07:40:08.080Z,10.73
2023-02-23T07:45:11.343Z,11.27
2023-02-23T07:50:14.607Z,10.30
2023-02-23T07:55:17.380Z,12.37
2023-02-23T08:00:20.226Z,9.43
2023-02-23T08:05:24.372Z,11.67
2023-02-23T08:10:28.109Z,13.03
2023-02-23T08:15:31.777Z,9.27
2023-02-23T08:20:34.380Z,11.33
2023-02-23T08:25:37.024Z,12.07
2023-02-23T08:30:41.495Z,11.90
2023-02-23T08:35:45.171Z,14.83
2023-02-23T08:40:47.788Z,15.27
2023-02-23T08:45:50.300Z,17.13
2023-02-23T08:50:57.667Z,15.77
2023-02-23T08:56:02.295Z,16.27
2023-02-23T09:01:05.622Z,13.93
2023-02-23T09:06:14.079Z,14.60
2023-02-23T09:11:17.070Z,14.27
2023-02-23T09:16:19.790Z,18.27
2023-02-23T09:21:25.423Z,17.53
2023-02-23T09:26:29.422Z,13.53
2023-02-23T09:31:31.926Z,14.87
2023-02-23T09:36:34.623Z,12.70
2023-02-23T09:42:01.494Z,15.70
2023-02-23T09:47:18.935Z,10.97
2023-02-23T09:52:39.401Z,17.90
2023-02-23T09:57:48.722Z,16.57
2023-02-23T10:03:28.284Z,12.87
2023-02-23T10:08:39.919Z,16.77
2023-02-23T10:13:58.554Z,16.43
2023-02-23T10:19:27.372Z,18.47
2023-02-23T10:24:32.990Z,12.17
2023-02-23T10:29:43.138Z,14.03
2023-02-23T10:34:48.434Z,17.37
2023-02-23T10:39:52.427Z,16.80
2023-02-23T10:44:55.613Z,19.67
2023-02-23T10:49:59.064Z,12.83
2023-02-23T10:55:06.518Z,19.13
2023-02-23T11:00:12.704Z,15.70
2023-02-23T11:05:43.063Z,19.03
2023-02-23T11:10:58.665Z,12.47
2023-02-23T11:16:10.336Z,18.60
2023-02-23T11:21:18.629Z,11.37
2023-02-23T11:26:33.387Z,16.43
2023-02-23T11:31:37.037Z,12.77
2023-02-23T11:36:39.701Z,17.10
2023-02-23T11:41:42.585Z,19.80
2023-02-23T11:46:46.759Z,13.13
2023-02-23T11:51:52.391Z,17.50
2023-02-23T11:56:57.589Z,19.83
2023-02-23T12:02:25.732Z,16.80
2023-02-23T12:07:34.944Z,14.20
2023-02-23T12:13:02.237Z,14.97
2023-02-23T12:18:20.809Z,12.47
2023-02-23T12:23:29.993Z,18.27
2023-02-23T12:29:04.201Z,21.00
2023-02-23T12:34:28.744Z,16.77
2023-02-23T12:39:44.024Z,20.20
2023-02-23T12:44:53.742Z,16.53
2023-02-23T12:50:13.179Z,18.83
2023-02-23T12:55:19.451Z,17.87
2023-02-23T13:00:58.344Z,15.13
2023-02-23T13:06:31.596Z,20.77
2023-02-23T13:11:52.010Z,17.47
2023-02-23T13:17:05.722Z,17.23
2023-02-23T13:22:22.735Z,17.40
2023-02-23T13:27:35.807Z,16.13
2023-02-23T13:32:39.625Z,17.50
2023-02-23T13:37:54.552Z,18.83
2023-02-23T13:43:17.606Z,17.50
2023-02-23T13:48:55.905Z,20.83
2023-02-23T13:54:16.444Z,22.60
2023-02-23T13:59:31.321Z,15.93
2023-02-23T14:04:42.523Z,22.80
2023-02-23T14:09:53.626Z,13.70
2023-02-23T14:14:56.137Z,13.40
2023-02-23T14:20:06.811Z,16.30
2023-02-23T14:25:34.497Z,23.17
2023-02-23T14:30:51.291Z,18.17
2023-02-23T14:35:54.814Z,20.50
2023-02-23T14:40:57.576Z,23.27
2023-02-23T14:46:05.982Z,23.87
2023-02-23T14:51:34.443Z,21.57
2023-02-23T14:56:47.200Z,24.43
2023-02-23T15:01:51.428Z,20.00
2023-02-23T15:07:00.627Z,18.60
2023-02-23T15:12:18.143Z,23.53
2023-02-23T15:17:24.132Z,24.60
2023-02-23T15:22:29.448Z,23.63
2023-02-23T15:27:43.083Z,22.17
2023-02-23T15:32:46.068Z,22.00
2023-02-23T15:37:59.474Z,21.80
2023-02-23T15:43:13.210Z,23.33
2023-02-23T15:48:20.935Z,23.13
2023-02-23T15:53:27.506Z,21.40
2023-02-23T15:58:41.827Z,23.43
2023-02-23T16:04:18.990Z,23.37
2023-02-23T16:09:22.173Z,23.53
2023-02-23T16:14:26.359Z,25.53
2023-02-23T16:19:29.652Z,24.17
2023-02-23T16:24:32.180Z,24.63
2023-02-23T16:29:41.646Z,25.13
2023-02-23T16:35:18.252Z,17.70
2023-02-23T16:40:21.178Z,19.40
2023-02-23T16:45:23.719Z,19.07
2023-02-23T16:50:26.259Z,21.87
2023-02-23T16:55:29.993Z,21.67
2023-02-23T17:00:33.502Z,22.67
2023-02-23T17:05:36.165Z,27.13
2023-02-23T17:10:41.384Z,27.63
2023-02-23T17:15:50.576Z,27.17
2023-02-23T17:20:54.435Z,27.20
2023-02-23T17:25:57.653Z,26.13
2023-02-23T17:31:01.693Z,29.10
2023-02-23T17:36:06.894Z,26.83
2023-02-23T17:41:15.547Z,32.00
2023-02-23T17:46:19.091Z,32.00
2023-02-23T17:51:22.079Z,31.27
2023-02-23T17:56:24.829Z,30.20
2023-02-23T18:01:27.420Z,24.80
2023-02-23T18:06:30.707Z,31.80
2023-02-23T18:11:36.815Z,34.20
2023-02-23T18:16:39.459Z,33.00
2023-02-23T18:21:42.159Z,35.63
2023-02-23T18:26:44.873Z,38.13
2023-02-23T18:31:49.782Z,34.27
2023-02-23T18:36:52.485Z,32.77
2023-02-23T18:41:55.001Z,38.40
2023-02-23T18:46:57.629Z,46.73
2023-02-23T18:52:00.257Z,50.80
2023-02-23T18:57:02.870Z,46.30
2023-02-23T19:02:05.425Z,49.47
2023-02-23T19:07:07.869Z,49.17
2023-02-23T19:12:11.933Z,54.60
2023-02-23T19:17:14.633Z,51.73
2023-02-23T19:22:17.566Z,58.43
2023-02-23T19:27:20.144Z,59.93
2023-02-23T19:32:22.836Z,54.03
2023-02-23T19:37:25.454Z,40.43
2023-02-23T19:42:28.034Z,29.93
2023-02-23T19:47:30.542Z,31.90
2023-02-23T19:52:34.795Z,52.83
2023-02-23T19:57:37.547Z,48.37
2023-02-23T20:02:44.575Z,46.43
2023-02-23T20:07:48.413Z,49.90
2023-02-23T20:12:53.193Z,45.97
2023-02-23T20:17:55.772Z,47.03
2023-02-23T20:22:58.387Z,48.20
2023-02-23T20:28:01.072Z,49.57
2023-02-23T20:33:10.731Z,37.60
2023-02-23T20:38:15.366Z,33.63
2023-02-23T20:43:18.631Z,33.10
2023-02-23T20:48:21.300Z,34.23
2023-02-23T20:53:25.769Z,40.63
2023-02-23T20:58:28.520Z,31.87
2023-02-23T21:03:31.116Z,35.90
2023-02-23T21:08:33.647Z,42.30
2023-02-23T21:13:36.698Z,33.73
2023-02-23T21:18:39.346Z,47.10
2023-02-23T21:23:45.203Z,34.43
2023-02-23T21:28:48.435Z,37.57
2023-02-23T21:33:51.081Z,41.50
2023-02-23T21:38:53.612Z,40.43
2023-02-23T21:43:56.232Z,31.47
2023-02-23T21:48:59.086Z,38.67
2023-02-23T21:54:01.598Z,32.53
2023-02-23T21:59:05.980Z,38.53
2023-02-23T22:04:11.122Z,32.00
2023-02-23T22:09:16.693Z,36.37
2023-02-23T22:14:19.274Z,33.67
2023-02-23T22:19:21.910Z,30.70
2023-02-23T22:24:24.497Z,33.87
2023-02-23T22:29:27.432Z,23.17
2023-02-23T22:34:29.921Z,27.00
2023-02-23T22:39:33.426Z,31.70
2023-02-23T22:44:39.006Z,26.57
2023-02-23T22:49:41.454Z,25.33
2023-02-23T22:54:46.209Z,32.33
2023-02-23T23:00:00.097Z,20.20
2023-02-23T23:05:04.216Z,24.10
2023-02-23T23:10:09.314Z,20.83
2023-02-23T23:15:15.136Z,23.57
2023-02-23T23:20:25.653Z,21.67
2023-02-23T23:25:29.687Z,25.87
2023-02-23T23:30:35.290Z,22.07
2023-02-23T23:35:38.275Z,22.17
2023-02-23T23:40:47.031Z,25.47
2023-02-23T23:45:51.783Z,21.07
2023-02-23T23:50:56.253Z,16.30
2023-02-23T23:56:05.404Z,20.13
